Terminal Aerodrome Forecast
Issued by NWS

Home | Current Version | Previous Version | Text Only | Print | Product List | Glossary On
Versions: 1 2 3 4 5 6 7 8 9 10 11 12 13 14 15 16
000
FTUS42 KTBW 201735
TAFRSW
TAF
KRSW 201735Z 2018/2118 13013G20KT P6SM BKN050
     FM202300 11009KT P6SM SCT050
     FM210900 09005KT P6SM SCT010
      TEMPO 2110/2114 4SM BR BKN010
     FM211400 11010KT P6SM SCT025
      TEMPO 2114/2116 BKN025
     FM211600 12012G18KT P6SM SCT035=

USA.gov is the U.S. government's official web portal to all federal, state and local government web resources and services.